createdAt,value
2023-05-09T05:01:11.653Z,95273.00
2023-05-09T05:02:11.501Z,95275.00
2023-05-09T05:03:11.520Z,95277.00
2023-05-09T05:04:11.570Z,95279.00
2023-05-09T05:05:12.585Z,95277.00
2023-05-09T05:06:11.657Z,95277.00
2023-05-09T05:07:11.645Z,95275.00
2023-05-09T05:08:11.670Z,95275.00
2023-05-09T05:09:11.685Z,95275.00
2023-05-09T05:10:11.709Z,95275.00
2023-05-09T05:11:11.759Z,95275.00
2023-05-09T05:12:11.833Z,95269.00
2023-05-09T05:13:11.883Z,95269.00
2023-05-09T05:14:11.900Z,95269.00
2023-05-09T05:15:12.043Z,95267.00
2023-05-09T05:16:12.065Z,95265.00
2023-05-09T05:17:12.136Z,95265.00
2023-05-09T05:18:12.088Z,95267.00
2023-05-09T05:19:12.101Z,95265.00
2023-05-09T05:20:12.153Z,95263.00
2023-05-09T05:21:12.188Z,95263.00
2023-05-09T05:22:12.293Z,95269.00
2023-05-09T05:23:12.261Z,95267.00
2023-05-09T05:24:12.280Z,95265.00
2023-05-09T05:25:12.438Z,95267.00
2023-05-09T05:26:12.306Z,95267.00
2023-05-09T05:27:12.400Z,95267.00
2023-05-09T05:28:12.436Z,95269.00
2023-05-09T05:29:12.406Z,95267.00
2023-05-09T05:30:12.463Z,95267.00
2023-05-09T05:31:12.543Z,95267.00
2023-05-09T05:32:12.499Z,95269.00
2023-05-09T05:33:12.614Z,95271.00
2023-05-09T05:34:12.584Z,95273.00
2023-05-09T05:35:12.795Z,95273.00
2023-05-09T05:36:12.615Z,95273.00
2023-05-09T05:37:12.645Z,95279.00
2023-05-09T05:38:12.629Z,95275.00
2023-05-09T05:39:12.650Z,95275.00
2023-05-09T05:40:12.893Z,95277.00
2023-05-09T05:41:12.685Z,95275.00
2023-05-09T05:42:12.726Z,95275.00
2023-05-09T05:43:12.890Z,95275.00
2023-05-09T05:44:12.772Z,95277.00
2023-05-09T05:45:12.906Z,95275.00
2023-05-09T05:46:12.899Z,95275.00
2023-05-09T05:47:12.842Z,95273.00
2023-05-09T05:48:12.845Z,95269.00
2023-05-09T05:49:12.953Z,95269.00
2023-05-09T07:40:12.657Z,95205.00
2023-05-09T07:41:12.344Z,95203.00
2023-05-09T07:42:12.331Z,95205.00
2023-05-09T07:43:12.307Z,95201.00
2023-05-09T07:44:12.319Z,95203.00
2023-05-09T07:45:12.514Z,95201.00
2023-05-09T07:46:12.347Z,95201.00
2023-05-09T07:47:12.268Z,95203.00
2023-05-09T07:48:12.347Z,95199.00
2023-05-09T07:49:12.288Z,95197.00
2023-05-09T07:50:12.268Z,95193.00
2023-05-09T07:51:12.262Z,95191.00
2023-05-09T07:52:12.246Z,95191.00
2023-05-09T07:53:12.265Z,95189.00
2023-05-09T07:54:12.216Z,95187.00
2023-05-09T07:55:12.316Z,95185.00
2023-05-09T07:56:12.328Z,95179.00
2023-05-09T07:57:12.222Z,95183.00
2023-05-09T07:58:12.225Z,95183.00
2023-05-09T07:59:12.257Z,95185.00
2023-05-09T08:00:12.184Z,95179.00
2023-05-09T08:01:12.169Z,95181.00
2023-05-09T08:02:12.211Z,95177.00
2023-05-09T08:03:12.267Z,95175.00
2023-05-09T08:04:12.241Z,95175.00
2023-05-09T08:05:12.205Z,95171.00
2023-05-09T08:06:12.200Z,95171.00
2023-05-09T08:07:12.159Z,95165.00
2023-05-09T08:08:12.150Z,95164.00
2023-05-09T08:09:12.127Z,95162.00
2023-05-09T08:10:12.125Z,95165.00
2023-05-09T08:11:12.128Z,95164.00
2023-05-09T08:12:12.262Z,95164.00
2023-05-09T08:13:12.187Z,95164.00
2023-05-09T08:14:12.802Z,95160.00
2023-05-09T08:15:12.206Z,95160.00
2023-05-09T08:16:12.152Z,95158.00
2023-05-09T08:17:12.098Z,95154.00
2023-05-09T08:18:12.044Z,95156.00
2023-05-09T08:19:12.065Z,95150.00
2023-05-09T08:20:12.043Z,95148.00
2023-05-09T08:21:12.096Z,95146.00
2023-05-09T08:22:12.043Z,95138.00
2023-05-09T08:23:12.067Z,95136.00
2023-05-09T08:24:12.036Z,95134.00
2023-05-09T08:25:12.053Z,95130.00
2023-05-09T08:26:11.996Z,95130.00
2023-05-09T08:27:12.018Z,95126.00
2023-05-09T08:28:12.153Z,95130.00
2023-05-09T08:29:11.985Z,95126.00
2023-05-09T08:30:11.966Z,95126.00
2023-05-09T08:31:12.021Z,95122.00
2023-05-09T08:32:12.026Z,95120.00
2023-05-09T08:33:12.090Z,95118.00
2023-05-09T08:34:11.980Z,95118.00
2023-05-09T08:35:11.975Z,95118.00
2023-05-09T08:36:11.933Z,95114.00
2023-05-09T08:37:14.451Z,95114.00
2023-05-09T08:38:11.963Z,95110.00
2023-05-09T08:39:11.912Z,95105.00
2023-05-09T08:40:11.960Z,95105.00
2023-05-09T08:41:11.903Z,95103.00
2023-05-09T08:42:11.934Z,95101.00
2023-05-09T08:43:11.934Z,95099.00
2023-05-09T08:44:12.034Z,95099.00
2023-05-09T08:45:11.889Z,95099.00
2023-05-09T08:46:11.928Z,95095.00
2023-05-09T08:47:11.882Z,95097.00
2023-05-09T08:48:11.882Z,95095.00
2023-05-09T08:49:11.871Z,95091.00
2023-05-09T08:50:12.055Z,95089.00
2023-05-09T08:51:11.840Z,95091.00
2023-05-09T08:52:11.855Z,95087.00
2023-05-09T08:53:11.828Z,95085.00
2023-05-09T08:54:11.808Z,95087.00
2023-05-09T08:55:11.856Z,95089.00
2023-05-09T08:56:11.825Z,95087.00
2023-05-09T08:57:11.793Z,95087.00
2023-05-09T08:58:11.811Z,95089.00
2023-05-09T08:59:11.791Z,95089.00
2023-05-09T09:00:11.887Z,95089.00
2023-05-09T09:01:11.793Z,95085.00
2023-05-09T09:02:11.839Z,95081.00
2023-05-09T09:03:11.881Z,95075.00
2023-05-09T09:04:11.747Z,95075.00
2023-05-09T09:05:23.855Z,95071.00
2023-05-09T09:06:12.727Z,95067.00
2023-05-09T09:07:11.756Z,95067.00
2023-05-09T09:08:11.737Z,95063.00
2023-05-09T09:09:11.736Z,95060.00
2023-05-09T09:10:11.709Z,95058.00
2023-05-09T09:11:11.705Z,95056.00
2023-05-09T09:12:11.708Z,95054.00
2023-05-09T09:13:11.729Z,95052.00
2023-05-09T09:14:11.659Z,95052.00
2023-05-09T09:15:11.660Z,95048.00
2023-05-09T09:16:11.766Z,95048.00
2023-05-09T09:17:11.687Z,95044.00
2023-05-09T09:18:11.734Z,95046.00
2023-05-09T09:19:11.652Z,95040.00
2023-05-09T09:20:11.667Z,95036.00
2023-05-09T09:21:11.641Z,95036.00
2023-05-09T09:22:11.622Z,95036.00
2023-05-09T09:23:11.582Z,95034.00
2023-05-09T09:24:11.607Z,95032.00
2023-05-09T09:25:11.605Z,95032.00
2023-05-09T09:26:11.583Z,95032.00
2023-05-09T09:27:11.610Z,95030.00
2023-05-09T09:28:11.576Z,95028.00
2023-05-09T09:29:11.559Z,95028.00
2023-05-09T09:30:11.565Z,95026.00
2023-05-09T09:31:11.599Z,95024.00
2023-05-09T09:32:11.774Z,95018.00
2023-05-09T09:33:11.694Z,95016.00
2023-05-09T09:34:11.699Z,95014.00
2023-05-09T09:35:11.765Z,95013.00
2023-05-09T09:36:11.821Z,95013.00
2023-05-09T09:37:11.836Z,95009.00
2023-05-09T09:38:11.894Z,95007.00
2023-05-09T09:39:11.966Z,95007.00
2023-05-09T09:40:12.282Z,95005.00
2023-05-09T09:41:12.061Z,95003.00
2023-05-09T09:42:12.104Z,94999.00
2023-05-09T09:43:12.176Z,94997.00
2023-05-09T09:44:12.216Z,94991.00
2023-05-09T09:45:12.277Z,94989.00
2023-05-09T09:46:12.374Z,94987.00
2023-05-09T09:47:12.398Z,94985.00
2023-05-09T09:48:12.597Z,94983.00
2023-05-09T09:49:12.484Z,94981.00
2023-05-09T09:50:12.705Z,94981.00
2023-05-09T09:51:12.611Z,94983.00
2023-05-09T09:52:12.669Z,94975.00
2023-05-09T09:53:12.756Z,94975.00
2023-05-09T09:54:12.680Z,94973.00
2023-05-09T09:55:12.695Z,94967.00
2023-05-09T09:56:12.700Z,94967.00
2023-05-09T09:57:12.714Z,94963.00
2023-05-09T09:58:12.746Z,94961.00
2023-05-09T09:59:12.723Z,94959.00
2023-05-09T10:00:12.890Z,94958.00
2023-05-09T10:01:12.754Z,94958.00
2023-05-09T10:02:12.746Z,94954.00
2023-05-09T10:03:12.877Z,94948.00
2023-05-09T10:04:12.841Z,94948.00
2023-05-09T10:05:12.732Z,94946.00
2023-05-09T10:06:12.750Z,94944.00
2023-05-09T10:07:14.926Z,94940.00
2023-05-09T10:08:12.807Z,94940.00
2023-05-09T10:09:12.817Z,94936.00
2023-05-09T10:10:13.252Z,94936.00
2023-05-09T10:11:12.832Z,94936.00
2023-05-09T10:12:12.797Z,94930.00
2023-05-09T10:13:12.940Z,94930.00
2023-05-09T10:14:12.885Z,94928.00
2023-05-09T10:15:12.850Z,94926.00
2023-05-09T10:16:13.122Z,94926.00
2023-05-09T10:17:12.917Z,94922.00
2023-05-09T10:18:12.983Z,94924.00
2023-05-09T10:19:12.911Z,94920.00
2023-05-09T10:20:13.414Z,94918.00
2023-05-09T10:21:13.115Z,94916.00
2023-05-09T10:22:13.117Z,94914.00
2023-05-09T10:23:13.171Z,94909.00
2023-05-09T10:24:13.253Z,94907.00
2023-05-09T10:25:13.582Z,94905.00
2023-05-09T10:26:13.375Z,94905.00
2023-05-09T10:27:13.462Z,94901.00
2023-05-09T10:28:13.480Z,94899.00
2023-05-09T10:29:13.540Z,94895.00
2023-05-09T10:30:13.549Z,94891.00
2023-05-09T10:31:13.585Z,94895.00
2023-05-09T10:32:13.584Z,94891.00
2023-05-09T10:33:13.622Z,94889.00
2023-05-09T10:34:13.647Z,94881.00
2023-05-09T10:35:13.923Z,94881.00
2023-05-09T10:36:13.828Z,94881.00
2023-05-09T10:37:13.727Z,94877.00
2023-05-09T10:38:13.741Z,94875.00
2023-05-09T10:39:13.822Z,94869.00
2023-05-09T10:40:13.762Z,94871.00
2023-05-09T10:41:13.753Z,94869.00
2023-05-09T10:42:13.757Z,94867.00
2023-05-09T10:43:13.757Z,94865.00
2023-05-09T10:44:13.772Z,94862.00
2023-05-09T10:45:14.107Z,94860.00
2023-05-09T10:46:13.813Z,94858.00
2023-05-09T10:47:13.780Z,94854.00
2023-05-09T10:48:13.822Z,94852.00
2023-05-09T10:49:13.816Z,94852.00
2023-05-09T10:50:13.834Z,94850.00
2023-05-09T10:51:13.843Z,94848.00
2023-05-09T10:52:13.923Z,94840.00
2023-05-09T10:53:13.847Z,94840.00
2023-05-09T10:54:13.860Z,94840.00
2023-05-09T10:55:13.988Z,94840.00
2023-05-09T10:56:13.903Z,94838.00
2023-05-09T10:57:13.964Z,94836.00
2023-05-09T10:58:13.994Z,94834.00
2023-05-09T10:59:14.068Z,94830.00
2023-05-09T11:00:14.135Z,94826.00
2023-05-09T11:01:14.229Z,94826.00
2023-05-09T11:02:14.231Z,94820.00
2023-05-09T11:03:14.339Z,94816.00
2023-05-09T11:04:14.514Z,94812.00
2023-05-09T11:05:14.566Z,94809.00
2023-05-09T11:06:14.478Z,94805.00
2023-05-09T11:07:14.820Z,94803.00
2023-05-09T11:08:14.678Z,94799.00
2023-05-09T11:09:14.656Z,94799.00
2023-05-09T11:10:14.686Z,94797.00
2023-05-09T11:11:14.757Z,94797.00
2023-05-09T11:12:14.829Z,94791.00
2023-05-09T11:13:14.924Z,94793.00
2023-05-09T11:14:14.921Z,94789.00
2023-05-09T11:15:15.175Z,94789.00
2023-05-09T11:16:15.078Z,94787.00
2023-05-09T11:17:15.113Z,94789.00
2023-05-09T11:18:15.306Z,94785.00
2023-05-09T11:19:15.216Z,94783.00
2023-05-09T11:20:15.332Z,94783.00
2023-05-09T11:21:15.334Z,94777.00
2023-05-09T11:22:15.377Z,94775.00
2023-05-09T11:23:15.396Z,94773.00
2023-05-09T11:24:15.521Z,94777.00
2023-05-09T11:25:15.657Z,94773.00
2023-05-09T11:26:15.510Z,94769.00
2023-05-09T11:27:15.542Z,94769.00
2023-05-09T11:28:15.546Z,94765.00
2023-05-09T11:29:15.553Z,94760.00
2023-05-09T11:30:15.652Z,94764.00
2023-05-09T11:31:15.556Z,94760.00
2023-05-09T11:32:15.841Z,94756.00
2023-05-09T11:33:15.591Z,94756.00
2023-05-09T11:34:15.582Z,94752.00
2023-05-09T11:35:15.944Z,94754.00
2023-05-09T11:36:15.638Z,94756.00
2023-05-09T11:37:15.592Z,94754.00
2023-05-09T11:38:15.605Z,94754.00
2023-05-09T11:39:15.592Z,94754.00
2023-05-09T11:40:15.749Z,94748.00
2023-05-09T11:41:15.593Z,94748.00
2023-05-09T11:42:15.590Z,94744.00
2023-05-09T11:43:15.577Z,94740.00
2023-05-09T11:44:15.603Z,94738.00
2023-05-09T11:45:15.724Z,94734.00
2023-05-09T11:46:15.630Z,94732.00
2023-05-09T11:47:15.574Z,94728.00
2023-05-09T11:48:15.581Z,94726.00
2023-05-09T11:49:15.600Z,94726.00
2023-05-09T11:50:15.638Z,94722.00
2023-05-09T11:51:15.577Z,94715.00
2023-05-09T11:52:15.599Z,94715.00
2023-05-09T11:53:15.553Z,94715.00
2023-05-09T11:54:15.638Z,94713.00
2023-05-09T11:55:15.753Z,94711.00
2023-05-09T11:56:15.656Z,94707.00
2023-05-09T11:57:15.580Z,94705.00
2023-05-09T11:58:15.597Z,94707.00
2023-05-09T11:59:15.672Z,94689.00
2023-05-09T12:00:15.787Z,94699.00
2023-05-09T12:01:15.683Z,94699.00
2023-05-09T12:02:15.720Z,94695.00
2023-05-09T12:03:15.777Z,94693.00
2023-05-09T12:04:15.729Z,94693.00
2023-05-09T12:05:15.956Z,94691.00
2023-05-09T12:06:15.688Z,94689.00
2023-05-09T12:07:15.722Z,94691.00
2023-05-09T12:08:15.744Z,94689.00
2023-05-09T12:09:15.788Z,94685.00
2023-05-09T12:10:15.858Z,94687.00
2023-05-09T12:11:15.851Z,94683.00
2023-05-09T12:12:15.940Z,94681.00
2023-05-09T12:13:15.957Z,94679.00
2023-05-09T12:14:15.899Z,94673.00
2023-05-09T12:15:16.271Z,94673.00
2023-05-09T12:16:15.972Z,94669.00
2023-05-09T12:17:15.974Z,94665.00
2023-05-09T12:18:15.956Z,94665.00
2023-05-09T12:19:15.941Z,94665.00
2023-05-09T12:20:16.008Z,94665.00
2023-05-09T12:21:15.992Z,94663.00
2023-05-09T12:22:15.939Z,94660.00
2023-05-09T12:23:15.941Z,94660.00
2023-05-09T12:24:15.912Z,94658.00
2023-05-09T12:25:16.125Z,94656.00
2023-05-09T12:26:15.951Z,94650.00
2023-05-09T12:27:15.954Z,94650.00
2023-05-09T12:28:16.036Z,94644.00
2023-05-09T12:29:15.942Z,94642.00
2023-05-09T12:30:16.009Z,94642.00
2023-05-09T12:31:16.028Z,94638.00
2023-05-09T12:32:15.987Z,94636.00
2023-05-09T12:33:15.952Z,94636.00
2023-05-09T12:34:15.969Z,94634.00
2023-05-09T12:35:16.146Z,94634.00
2023-05-09T12:36:15.949Z,94624.00
2023-05-09T12:37:15.933Z,94622.00
2023-05-09T12:38:15.969Z,94622.00
2023-05-09T12:39:15.943Z,94622.00
2023-05-09T12:40:15.997Z,94617.00
2023-05-09T12:41:30.905Z,94615.00
2023-05-09T12:42:16.973Z,94615.00
2023-05-09T12:43:15.931Z,94613.00
2023-05-09T12:44:16.041Z,94611.00
2023-05-09T12:45:16.103Z,94611.00
2023-05-09T12:46:15.960Z,94609.00
2023-05-09T12:47:15.968Z,94607.00
2023-05-09T12:48:15.909Z,94607.00
2023-05-09T12:49:15.916Z,94605.00
2023-05-09T12:50:15.928Z,94603.00
2023-05-09T12:51:15.887Z,94601.00
2023-05-09T12:52:15.900Z,94599.00
2023-05-09T12:53:15.903Z,94601.00
2023-05-09T12:54:15.876Z,94597.00
2023-05-09T12:55:16.121Z,94595.00
2023-05-09T12:56:15.874Z,94593.00
2023-05-09T12:57:15.859Z,94593.00
2023-05-09T12:58:15.846Z,94591.00
2023-05-09T12:59:15.835Z,94589.00
2023-05-09T13:00:15.877Z,94587.00
2023-05-09T13:01:16.022Z,94585.00
2023-05-09T13:02:16.072Z,94583.00
2023-05-09T13:03:16.106Z,94581.00
2023-05-09T13:04:16.118Z,94577.00
2023-05-09T13:05:16.433Z,94573.00
2023-05-09T13:06:16.261Z,94570.00
2023-05-09T13:07:16.295Z,94571.00
2023-05-09T13:08:16.346Z,94566.00
2023-05-09T13:09:16.398Z,94566.00
2023-05-09T13:10:16.435Z,94566.00
2023-05-09T13:11:17.285Z,94562.00
2023-05-09T13:12:16.557Z,94564.00
2023-05-09T13:13:16.660Z,94562.00
2023-05-09T13:14:16.667Z,94558.00
2023-05-09T13:15:17.220Z,94556.00
2023-05-09T13:16:17.979Z,94554.00
2023-05-09T13:17:16.896Z,94550.00
2023-05-09T13:18:16.925Z,94544.00
2023-05-09T13:19:16.981Z,94544.00
2023-05-09T13:20:17.306Z,94542.00
2023-05-09T13:21:17.110Z,94544.00
2023-05-09T13:22:17.156Z,94540.00
2023-05-09T13:23:17.231Z,94538.00
2023-05-09T13:24:17.311Z,94534.00
2023-05-09T13:25:17.363Z,94530.00
2023-05-09T13:26:17.442Z,94530.00
2023-05-09T13:27:17.495Z,94530.00
2023-05-09T13:28:17.554Z,94526.00
2023-05-09T13:29:17.628Z,94524.00
2023-05-09T13:30:18.160Z,94522.00
2023-05-09T13:31:17.872Z,94518.00
2023-05-09T13:32:17.893Z,94516.00
2023-05-09T13:33:25.886Z,94515.00
2023-05-09T13:34:18.858Z,94513.00
2023-05-09T13:35:17.907Z,94509.00
2023-05-09T13:36:17.858Z,94509.00
2023-05-09T13:37:17.843Z,94509.00
2023-05-09T13:38:17.843Z,94505.00
2023-05-09T13:39:17.825Z,94505.00
2023-05-09T13:40:17.932Z,94503.00
2023-05-09T13:41:17.834Z,94501.00
2023-05-09T13:42:19.172Z,94503.00
2023-05-09T13:43:17.911Z,94499.00
2023-05-09T13:44:17.924Z,94499.00
2023-05-09T13:45:17.969Z,94493.00
2023-05-09T13:46:18.114Z,94495.00
2023-05-09T13:47:18.086Z,94489.00
2023-05-09T13:48:18.263Z,94491.00
2023-05-09T13:49:18.211Z,94489.00
2023-05-09T13:50:18.559Z,94485.00
2023-05-09T13:51:18.297Z,94489.00
2023-05-09T13:52:18.377Z,94483.00
2023-05-09T13:53:18.408Z,94483.00
2023-05-09T13:54:18.471Z,94481.00
2023-05-09T13:55:18.557Z,94481.00
2023-05-09T13:56:18.573Z,94479.00
2023-05-09T13:57:18.628Z,94481.00
2023-05-09T13:58:18.683Z,94477.00
2023-05-09T13:59:18.766Z,94479.00
2023-05-09T14:00:18.986Z,94479.00
2023-05-09T14:01:18.952Z,94479.00
2023-05-09T14:02:18.930Z,94477.00
2023-05-09T14:03:19.015Z,94477.00
2023-05-09T14:04:19.000Z,94475.00
2023-05-09T14:05:19.029Z,94477.00
2023-05-09T14:06:19.128Z,94475.00
2023-05-09T14:07:19.158Z,94475.00
2023-05-09T14:08:19.225Z,94473.00
2023-05-09T14:09:19.273Z,94469.00
2023-05-09T14:10:19.492Z,94469.00
2023-05-09T14:11:19.392Z,94469.00
2023-05-09T14:12:19.407Z,94469.00
2023-05-09T14:13:19.549Z,94468.00
2023-05-09T14:14:19.519Z,94464.00
2023-05-09T14:15:19.572Z,94464.00
2023-05-09T14:16:19.668Z,94460.00
2023-05-09T14:17:19.724Z,94460.00
2023-05-09T14:18:21.138Z,94462.00
2023-05-09T14:19:19.774Z,94462.00
2023-05-09T14:20:19.954Z,94460.00
2023-05-09T14:21:19.865Z,94458.00
2023-05-09T14:22:20.023Z,94454.00
2023-05-09T14:23:19.975Z,94450.00
2023-05-09T14:24:19.984Z,94450.00
2023-05-09T14:25:20.050Z,94448.00
2023-05-09T14:26:20.094Z,94444.00
2023-05-09T14:27:20.117Z,94446.00
2023-05-09T14:28:20.170Z,94444.00
2023-05-09T14:29:20.190Z,94444.00
2023-05-09T14:30:20.266Z,94440.00
2023-05-09T14:31:20.294Z,94442.00
2023-05-09T14:32:20.275Z,94440.00
2023-05-09T14:33:20.304Z,94436.00
2023-05-09T14:34:20.350Z,94434.00
2023-05-09T14:35:20.413Z,94430.00
2023-05-09T14:36:20.495Z,94428.00
2023-05-09T14:37:20.427Z,94430.00
2023-05-09T14:38:20.434Z,94434.00
2023-05-09T14:39:20.429Z,94434.00
2023-05-09T14:40:20.519Z,94432.00
2023-05-09T14:41:21.551Z,94430.00
2023-05-09T14:42:20.502Z,94428.00
2023-05-09T14:43:20.516Z,94428.00
2023-05-09T14:44:20.520Z,94424.00
2023-05-09T14:45:20.604Z,94426.00
2023-05-09T14:46:20.598Z,94422.00
2023-05-09T14:47:20.584Z,94424.00
2023-05-09T14:48:20.565Z,94426.00
2023-05-09T14:49:20.591Z,94422.00
2023-05-09T14:50:20.559Z,94416.00
2023-05-09T14:51:20.589Z,94414.00
2023-05-09T14:52:20.684Z,94414.00
2023-05-09T14:53:20.574Z,94413.00
2023-05-09T14:54:20.612Z,94411.00
2023-05-09T14:55:20.605Z,94409.00
2023-05-09T14:56:20.592Z,94411.00
2023-05-09T14:57:20.613Z,94409.00
2023-05-09T14:58:20.632Z,94403.00
2023-05-09T14:59:20.637Z,94407.00
2023-05-09T15:00:22.302Z,94407.00
2023-05-09T15:01:20.613Z,94403.00
2023-05-09T15:02:20.629Z,94403.00
2023-05-09T15:03:20.627Z,94403.00
2023-05-09T15:04:20.652Z,94401.00
2023-05-09T15:05:20.679Z,94401.00
2023-05-09T15:06:20.625Z,94397.00
2023-05-09T15:07:20.647Z,94401.00
2023-05-09T15:08:20.732Z,94399.00
2023-05-09T15:09:20.684Z,94393.00
2023-05-09T15:10:20.656Z,94389.00
2023-05-09T15:11:20.640Z,94389.00
2023-05-09T15:12:20.690Z,94387.00
2023-05-09T15:13:20.773Z,94385.00
2023-05-09T15:14:20.676Z,94383.00
2023-05-09T15:15:20.658Z,94381.00
2023-05-09T15:16:20.677Z,94379.00
2023-05-09T15:17:20.639Z,94379.00
2023-05-09T15:18:20.645Z,94379.00
2023-05-09T15:19:20.654Z,94375.00
2023-05-09T15:20:20.645Z,94368.00
2023-05-09T15:21:20.654Z,94368.00
2023-05-09T15:22:20.619Z,94366.00
2023-05-09T15:23:20.685Z,94364.00
2023-05-09T15:24:20.706Z,94362.00
2023-05-09T15:25:20.632Z,94360.00
2023-05-09T15:26:20.621Z,94358.00
2023-05-09T15:27:20.616Z,94356.00
2023-05-09T15:28:20.605Z,94358.00
2023-05-09T15:29:20.625Z,94354.00
2023-05-09T15:30:20.585Z,94354.00
2023-05-09T15:31:20.669Z,94356.00
2023-05-09T15:32:20.612Z,94350.00
2023-05-09T15:33:20.617Z,94352.00
2023-05-09T15:34:20.577Z,94350.00
2023-05-09T15:35:20.607Z,94350.00
2023-05-09T15:36:20.571Z,94350.00
2023-05-09T15:37:20.583Z,94352.00
2023-05-09T15:38:20.594Z,94350.00
2023-05-09T15:39:20.610Z,94350.00
2023-05-09T15:40:20.661Z,94350.00
2023-05-09T15:41:20.565Z,94350.00
2023-05-09T15:42:20.579Z,94350.00
2023-05-09T15:43:20.556Z,94348.00
2023-05-09T15:44:20.557Z,94346.00
2023-05-09T15:45:20.569Z,94346.00
2023-05-09T15:46:20.642Z,94346.00
2023-05-09T15:47:20.634Z,94346.00
2023-05-09T15:48:20.586Z,94348.00
2023-05-09T15:49:20.586Z,94342.00
2023-05-09T15:50:20.606Z,94344.00
2023-05-09T15:51:20.597Z,94348.00
2023-05-09T15:52:20.582Z,94348.00
2023-05-09T15:53:20.626Z,94344.00
2023-05-09T15:54:20.612Z,94340.00
2023-05-09T15:55:20.694Z,94342.00
2023-05-09T15:56:20.720Z,94348.00
2023-05-09T15:57:20.614Z,94346.00
2023-05-09T15:58:20.633Z,94348.00
2023-05-09T15:59:20.629Z,94338.00
2023-05-09T16:00:20.632Z,94340.00
2023-05-09T16:01:20.689Z,94334.00
2023-05-09T16:02:20.668Z,94338.00
2023-05-09T16:03:20.775Z,94338.00
2023-05-09T16:04:20.665Z,94342.00
2023-05-09T16:05:20.684Z,94344.00
2023-05-09T16:06:20.656Z,94342.00
2023-05-09T16:07:20.892Z,94342.00
2023-05-09T16:08:20.665Z,94338.00
2023-05-09T16:09:20.685Z,94340.00
2023-05-09T16:10:20.640Z,94344.00
2023-05-09T16:11:20.663Z,94344.00
2023-05-09T16:12:20.753Z,94338.00
2023-05-09T16:13:20.689Z,94344.00
2023-05-09T16:14:20.713Z,94334.00
2023-05-09T16:15:20.669Z,94332.00
2023-05-09T16:16:20.720Z,94328.00
2023-05-09T16:17:20.680Z,94338.00
2023-05-09T16:18:20.704Z,94336.00
2023-05-09T16:19:20.701Z,94340.00
2023-05-09T16:20:20.686Z,94340.00
2023-05-09T16:21:20.732Z,94342.00
2023-05-09T16:22:20.694Z,94340.00
2023-05-09T16:23:20.738Z,94338.00
2023-05-09T16:24:20.710Z,94338.00
2023-05-09T16:25:20.698Z,94330.00
2023-05-09T16:26:20.749Z,94332.00
2023-05-09T16:27:20.727Z,94330.00
2023-05-09T16:28:20.808Z,94328.00
2023-05-09T16:29:20.759Z,94332.00
2023-05-09T16:30:20.745Z,94324.00
2023-05-09T16:31:20.822Z,94330.00
2023-05-09T16:32:20.768Z,94324.00
2023-05-09T16:33:20.791Z,94332.00
2023-05-09T16:34:20.768Z,94324.00
2023-05-09T16:35:20.802Z,94326.00
2023-05-09T16:36:20.832Z,94326.00
2023-05-09T16:37:20.847Z,94324.00
2023-05-09T16:38:20.829Z,94324.00
2023-05-09T16:39:20.832Z,94321.00
2023-05-09T16:40:20.826Z,94326.00
2023-05-09T16:41:20.844Z,94324.00
2023-05-09T16:42:20.873Z,94322.00
2023-05-09T16:43:20.863Z,94324.00
2023-05-09T16:44:20.980Z,94319.00
2023-05-09T16:45:20.958Z,94317.00
2023-05-09T16:46:20.950Z,94319.00
2023-05-09T16:47:20.929Z,94321.00
2023-05-09T16:48:20.914Z,94322.00
2023-05-09T16:49:20.933Z,94326.00
2023-05-09T16:50:20.927Z,94321.00
2023-05-09T16:51:20.995Z,94322.00
2023-05-09T16:52:21.006Z,94324.00
2023-05-09T16:53:20.989Z,94324.00
2023-05-09T16:54:21.013Z,94324.00
2023-05-09T16:55:21.027Z,94321.00
2023-05-09T16:56:21.026Z,94324.00
2023-05-09T16:57:21.030Z,94324.00
2023-05-09T16:58:21.119Z,94326.00
2023-05-09T16:59:21.087Z,94322.00
2023-05-09T17:00:21.091Z,94322.00
